sensor_id;sensor_type;location;lat;lon;timestamp;pressure;altitude;pressure_sealevel;temperature;humidity
48041;BME280;33815;48.386;11.738;2023-02-12T00:01:01;98381.94;;;1.95;100.00
48041;BME280;33815;48.386;11.738;2023-02-12T00:03:26;98380.59;;;1.84;100.00
48041;BME280;33815;48.386;11.738;2023-02-12T00:05:51;98389.59;;;1.98;100.00
48041;BME280;33815;48.386;11.738;2023-02-12T00:08:16;98387.84;;;1.98;100.00
48041;BME280;33815;48.386;11.738;2023-02-12T00:10:43;98371.09;;;1.86;100.00
48041;BME280;33815;48.386;11.738;2023-02-12T00:13:09;98382.00;;;1.93;100.00
48041;BME280;33815;48.386;11.738;2023-02-12T00:15:39;98381.94;;;1.95;100.00
48041;BME280;33815;48.386;11.738;2023-02-12T00:18:04;98377.72;;;1.94;100.00
48041;BME280;33815;48.386;11.738;2023-02-12T00:20:30;98370.31;;;1.84;100.00
48041;BME280;33815;48.386;11.738;2023-02-12T00:22:55;98399.06;;;1.96;100.00
48041;BME280;33815;48.386;11.738;2023-02-12T00:25:20;98388.66;;;1.99;100.00
48041;BME280;33815;48.386;11.738;2023-02-12T00:27:45;98372.59;;;1.92;100.00
48041;BME280;33815;48.386;11.738;2023-02-12T00:30:11;98378.44;;;1.97;100.00
48041;BME280;33815;48.386;11.738;2023-02-12T00:32:36;98380.25;;;1.95;100.00
48041;BME280;33815;48.386;11.738;2023-02-12T00:35:02;98389.66;;;1.95;100.00
48041;BME280;33815;48.386;11.738;2023-02-12T00:37:27;98386.25;;;1.94;100.00
48041;BME280;33815;48.386;11.738;2023-02-12T00:39:53;98385.31;;;1.97;100.00
48041;BME280;33815;48.386;11.738;2023-02-12T00:42:18;98382.88;;;1.94;100.00
48041;BME280;33815;48.386;11.738;2023-02-12T00:44:43;98371.94;;;1.87;100.00
48041;BME280;33815;48.386;11.738;2023-02-12T00:47:08;98384.53;;;1.95;100.00
48041;BME280;33815;48.386;11.738;2023-02-12T00:49:34;98388.00;;;1.94;100.00
48041;BME280;33815;48.386;11.738;2023-02-12T00:52:00;98383.00;;;1.89;100.00
48041;BME280;33815;48.386;11.738;2023-02-12T00:54:26;98372.88;;;1.84;100.00
48041;BME280;33815;48.386;11.738;2023-02-12T00:56:51;98390.72;;;1.89;100.00
48041;BME280;33815;48.386;11.738;2023-02-12T00:59:17;98401.06;;;1.87;100.00
48041;BME280;33815;48.386;11.738;2023-02-12T01:01:42;98394.44;;;1.80;100.00
48041;BME280;33815;48.386;11.738;2023-02-12T01:04:07;98390.13;;;1.81;100.00
48041;BME280;33815;48.386;11.738;2023-02-12T01:06:32;98391.81;;;1.82;100.00
48041;BME280;33815;48.386;11.738;2023-02-12T01:08:58;98379.53;;;1.90;100.00
48041;BME280;33815;48.386;11.738;2023-02-12T01:11:23;98393.94;;;1.96;100.00
48041;BME280;33815;48.386;11.738;2023-02-12T01:13:48;98391.47;;;1.93;100.00
48041;BME280;33815;48.386;11.738;2023-02-12T01:16:19;98368.72;;;1.80;100.00
48041;BME280;33815;48.386;11.738;2023-02-12T01:18:45;98377.22;;;1.82;100.00
48041;BME280;33815;48.386;11.738;2023-02-12T01:23:38;98390.66;;;1.91;100.00
48041;BME280;33815;48.386;11.738;2023-02-12T01:26:04;98388.00;;;1.94;100.00
48041;BME280;33815;48.386;11.738;2023-02-12T01:28:29;98369.41;;;1.85;100.00
48041;BME280;33815;48.386;11.738;2023-02-12T01:30:54;98392.16;;;1.98;100.00
48041;BME280;33815;48.386;11.738;2023-02-12T01:33:19;98395.50;;;2.00;100.00
48041;BME280;33815;48.386;11.738;2023-02-12T01:35:45;98396.28;;;2.02;100.00
48041;BME280;33815;48.386;11.738;2023-02-12T01:38:10;98396.34;;;2.00;100.00
48041;BME280;33815;48.386;11.738;2023-02-12T01:40:36;98381.72;;;2.02;100.00
48041;BME280;33815;48.386;11.738;2023-02-12T01:43:01;98386.03;;;2.00;100.00
48041;BME280;33815;48.386;11.738;2023-02-12T01:47:52;98362.25;;;1.95;100.00
48041;BME280;33815;48.386;11.738;2023-02-12T01:50:18;98371.53;;;1.99;100.00
48041;BME280;33815;48.386;11.738;2023-02-12T01:52:52;98355.72;;;1.85;100.00
48041;BME280;33815;48.386;11.738;2023-02-12T01:55:18;98357.34;;;1.87;100.00
48041;BME280;33815;48.386;11.738;2023-02-12T01:57:46;98372.53;;;1.95;100.00
48041;BME280;33815;48.386;11.738;2023-02-12T02:00:15;98375.03;;;1.97;100.00
48041;BME280;33815;48.386;11.738;2023-02-12T02:02:44;98381.06;;;1.96;100.00
48041;BME280;33815;48.386;11.738;2023-02-12T02:05:13;98358.81;;;1.95;100.00
48041;BME280;33815;48.386;11.738;2023-02-12T02:07:42;98381.88;;;1.98;100.00
48041;BME280;33815;48.386;11.738;2023-02-12T02:10:09;98374.19;;;1.96;100.00
48041;BME280;33815;48.386;11.738;2023-02-12T02:12:35;98359.97;;;1.86;100.00
48041;BME280;33815;48.386;11.738;2023-02-12T02:15:19;98364.94;;;1.91;100.00
48041;BME280;33815;48.386;11.738;2023-02-12T02:18:10;98383.75;;;1.93;100.00
48041;BME280;33815;48.386;11.738;2023-02-12T02:29:20;98384.56;;;1.93;100.00
48041;BME280;33815;48.386;11.738;2023-02-12T02:32:05;98365.38;;;1.78;100.00
48041;BME280;33815;48.386;11.738;2023-02-12T02:34:40;98367.16;;;1.76;100.00
48041;BME280;33815;48.386;11.738;2023-02-12T02:37:17;98371.19;;;1.83;100.00
48041;BME280;33815;48.386;11.738;2023-02-12T02:39:51;98372.19;;;1.79;100.00
48041;BME280;33815;48.386;11.738;2023-02-12T02:42:34;98385.94;;;1.78;100.00
48041;BME280;33815;48.386;11.738;2023-02-12T02:45:11;98379.78;;;1.82;100.00
48041;BME280;33815;48.386;11.738;2023-02-12T02:47:47;98366.56;;;1.68;100.00
48041;BME280;33815;48.386;11.738;2023-02-12T02:50:19;98379.91;;;1.79;100.00
48041;BME280;33815;48.386;11.738;2023-02-12T02:52:53;98379.56;;;1.63;100.00
48041;BME280;33815;48.386;11.738;2023-02-12T02:55:23;98376.25;;;1.60;100.00
48041;BME280;33815;48.386;11.738;2023-02-12T02:57:54;98384.91;;;1.57;100.00
48041;BME280;33815;48.386;11.738;2023-02-12T03:00:32;98390.72;;;1.62;100.00
48041;BME280;33815;48.386;11.738;2023-02-12T03:03:03;98389.25;;;1.55;100.00
48041;BME280;33815;48.386;11.738;2023-02-12T03:05:37;98389.25;;;1.55;100.00
48041;BME280;33815;48.386;11.738;2023-02-12T03:08:09;98385.09;;;1.51;100.00
48041;BME280;33815;48.386;11.738;2023-02-12T03:10:50;98380.94;;;1.47;100.00
48041;BME280;33815;48.386;11.738;2023-02-12T03:13:27;98391.06;;;1.51;100.00
48041;BME280;33815;48.386;11.738;2023-02-12T03:15:59;98384.31;;;1.49;100.00
48041;BME280;33815;48.386;11.738;2023-02-12T03:18:31;98384.56;;;1.41;100.00
48041;BME280;33815;48.386;11.738;2023-02-12T03:21:02;98399.78;;;1.47;100.00
48041;BME280;33815;48.386;11.738;2023-02-12T03:24:06;98407.53;;;1.46;100.00
48041;BME280;33815;48.386;11.738;2023-02-12T03:27:11;98398.06;;;1.48;100.00
48041;BME280;33815;48.386;11.738;2023-02-12T03:29:38;98399.75;;;1.49;100.00
48041;BME280;33815;48.386;11.738;2023-02-12T03:35:22;98396.03;;;1.58;100.00
48041;BME280;33815;48.386;11.738;2023-02-12T03:38:02;98389.22;;;1.57;100.00
48041;BME280;33815;48.386;11.738;2023-02-12T03:40:33;98393.91;;;1.70;100.00
48041;BME280;33815;48.386;11.738;2023-02-12T03:45:39;98393.75;;;1.48;100.00
48041;BME280;33815;48.386;11.738;2023-02-12T03:48:40;98406.50;;;1.51;100.00
48041;BME280;33815;48.386;11.738;2023-02-12T03:51:22;98408.22;;;1.51;100.00
48041;BME280;33815;48.386;11.738;2023-02-12T03:53:49;98410.97;;;1.46;100.00
48041;BME280;33815;48.386;11.738;2023-02-12T03:56:19;98421.34;;;1.42;100.00
48041;BME280;33815;48.386;11.738;2023-02-12T03:58:46;98410.34;;;1.38;100.00
48041;BME280;33815;48.386;11.738;2023-02-12T04:01:12;98414.50;;;1.42;100.00
48041;BME280;33815;48.386;11.738;2023-02-12T04:03:38;98407.78;;;1.38;100.00
48041;BME280;33815;48.386;11.738;2023-02-12T04:06:04;98406.19;;;1.34;100.00
48041;BME280;33815;48.386;11.738;2023-02-12T04:08:30;98415.28;;;1.44;100.00
48041;BME280;33815;48.386;11.738;2023-02-12T04:14:11;98418.50;;;1.51;100.00
48041;BME280;33815;48.386;11.738;2023-02-12T04:16:49;98423.75;;;1.48;100.00
48041;BME280;33815;48.386;11.738;2023-02-12T04:19:21;98424.47;;;1.51;100.00
48041;BME280;33815;48.386;11.738;2023-02-12T04:24:38;98431.41;;;1.49;100.00
48041;BME280;33815;48.386;11.738;2023-02-12T04:27:19;98435.63;;;1.52;100.00
48041;BME280;33815;48.386;11.738;2023-02-12T04:30:00;98427.09;;;1.50;100.00
48041;BME280;33815;48.386;11.738;2023-02-12T04:32:41;98433.16;;;1.49;100.00
48041;BME280;33815;48.386;11.738;2023-02-12T04:35:21;98429.72;;;1.48;100.00
48041;BME280;33815;48.386;11.738;2023-02-12T04:37:52;98423.81;;;1.46;100.00
48041;BME280;33815;48.386;11.738;2023-02-12T04:40:20;98427.31;;;1.44;100.00
48041;BME280;33815;48.386;11.738;2023-02-12T04:42:47;98433.28;;;1.44;100.00
48041;BME280;33815;48.386;11.738;2023-02-12T04:45:16;98434.19;;;1.43;100.00
48041;BME280;33815;48.386;11.738;2023-02-12T04:47:45;98437.72;;;1.39;100.00
48041;BME280;33815;48.386;11.738;2023-02-12T04:50:10;98441.91;;;1.42;100.00
48041;BME280;33815;48.386;11.738;2023-02-12T04:52:36;98425.16;;;1.30;100.00
48041;BME280;33815;48.386;11.738;2023-02-12T04:55:01;98438.63;;;1.38;100.00
48041;BME280;33815;48.386;11.738;2023-02-12T04:57:26;98440.34;;;1.38;100.00
48041;BME280;33815;48.386;11.738;2023-02-12T04:59:51;98448.78;;;1.41;100.00
48041;BME280;33815;48.386;11.738;2023-02-12T05:02:17;98429.59;;;1.25;100.00
48041;BME280;33815;48.386;11.738;2023-02-12T05:04:42;98433.91;;;1.24;100.00
48041;BME280;33815;48.386;11.738;2023-02-12T05:07:09;98448.22;;;1.31;100.00
48041;BME280;33815;48.386;11.738;2023-02-12T05:09:35;98444.03;;;1.29;100.00
48041;BME280;33815;48.386;11.738;2023-02-12T05:12:00;98450.91;;;1.28;100.00
48041;BME280;33815;48.386;11.738;2023-02-12T05:14:25;98442.44;;;1.25;100.00
48041;BME280;33815;48.386;11.738;2023-02-12T05:16:50;98454.28;;;1.29;100.00
48041;BME280;33815;48.386;11.738;2023-02-12T05:19:16;98449.34;;;1.23;100.00
48041;BME280;33815;48.386;11.738;2023-02-12T05:21:41;98445.97;;;1.20;100.00
48041;BME280;33815;48.386;11.738;2023-02-12T05:24:06;98449.25;;;1.26;100.00
48041;BME280;33815;48.386;11.738;2023-02-12T05:26:32;98438.88;;;1.29;100.00
48041;BME280;33815;48.386;11.738;2023-02-12T05:28:57;98460.16;;;1.34;100.00
48041;BME280;33815;48.386;11.738;2023-02-12T05:31:23;98459.28;;;1.35;100.00
48041;BME280;33815;48.386;11.738;2023-02-12T05:33:49;98454.34;;;1.27;100.00
48041;BME280;33815;48.386;11.738;2023-02-12T05:36:17;98449.41;;;1.21;100.00
48041;BME280;33815;48.386;11.738;2023-02-12T05:38:43;98455.22;;;1.26;100.00
48041;BME280;33815;48.386;11.738;2023-02-12T05:41:14;98471.34;;;1.31;100.00
48041;BME280;33815;48.386;11.738;2023-02-12T05:43:40;98460.00;;;1.39;100.00
48041;BME280;33815;48.386;11.738;2023-02-12T05:46:06;98454.41;;;1.26;100.00
48041;BME280;33815;48.386;11.738;2023-02-12T05:48:32;98479.53;;;1.44;100.00
48041;BME280;33815;48.386;11.738;2023-02-12T05:51:19;98446.78;;;1.23;100.00
48041;BME280;33815;48.386;11.738;2023-02-12T05:53:46;98472.94;;;1.35;100.00
48041;BME280;33815;48.386;11.738;2023-02-12T05:58:40;98479.78;;;1.36;100.00
48041;BME280;33815;48.386;11.738;2023-02-12T06:01:18;98473.03;;;1.32;100.00
48041;BME280;33815;48.386;11.738;2023-02-12T06:03:44;98472.16;;;1.33;100.00
48041;BME280;33815;48.386;11.738;2023-02-12T06:06:10;98473.81;;;1.34;100.00
48041;BME280;33815;48.386;11.738;2023-02-12T06:08:36;98484.28;;;1.28;100.00
48041;BME280;33815;48.386;11.738;2023-02-12T06:11:03;98466.56;;;1.19;100.00
48041;BME280;33815;48.386;11.738;2023-02-12T06:13:30;98485.97;;;1.29;100.00
48041;BME280;33815;48.386;11.738;2023-02-12T06:15:55;98482.50;;;1.30;100.00
48041;BME280;33815;48.386;11.738;2023-02-12T06:18:21;98477.41;;;1.29;100.00
48041;BME280;33815;48.386;11.738;2023-02-12T06:20:47;98479.91;;;1.32;100.00
48041;BME280;33815;48.386;11.738;2023-02-12T06:23:12;98479.81;;;1.35;100.00
48041;BME280;33815;48.386;11.738;2023-02-12T06:25:37;98489.34;;;1.31;100.00
48041;BME280;33815;48.386;11.738;2023-02-12T06:28:03;98491.75;;;1.36;100.00
48041;BME280;33815;48.386;11.738;2023-02-12T06:30:28;98494.41;;;1.33;100.00
48041;BME280;33815;48.386;11.738;2023-02-12T06:32:56;98491.13;;;1.29;100.00
48041;BME280;33815;48.386;11.738;2023-02-12T06:35:21;98486.72;;;1.33;100.00
48041;BME280;33815;48.386;11.738;2023-02-12T06:37:46;98486.97;;;1.25;100.00
48041;BME280;33815;48.386;11.738;2023-02-12T06:40:12;98494.53;;;1.30;100.00
48041;BME280;33815;48.386;11.738;2023-02-12T06:42:37;98484.56;;;1.19;100.00
48041;BME280;33815;48.386;11.738;2023-02-12T06:45:02;98500.53;;;1.29;100.00
48041;BME280;33815;48.386;11.738;2023-02-12T06:47:28;98503.09;;;1.29;100.00
48041;BME280;33815;48.386;11.738;2023-02-12T06:49:53;98503.91;;;1.31;100.00
48041;BME280;33815;48.386;11.738;2023-02-12T06:52:18;98502.19;;;1.31;100.00
48041;BME280;33815;48.386;11.738;2023-02-12T06:54:45;98496.91;;;1.36;100.00
48041;BME280;33815;48.386;11.738;2023-02-12T06:57:10;98514.09;;;1.34;100.00
48041;BME280;33815;48.386;11.738;2023-02-12T06:59:35;98499.59;;;1.31;100.00
48041;BME280;33815;48.386;11.738;2023-02-12T07:02:01;98514.19;;;1.31;100.00
48041;BME280;33815;48.386;11.738;2023-02-12T07:04:26;98514.19;;;1.31;100.00
48041;BME280;33815;48.386;11.738;2023-02-12T07:06:51;98498.13;;;1.24;100.00
48041;BME280;33815;48.386;11.738;2023-02-12T07:09:16;98500.69;;;1.24;100.00
48041;BME280;33815;48.386;11.738;2023-02-12T07:11:42;98508.97;;;1.34;100.00
48041;BME280;33815;48.386;11.738;2023-02-12T07:14:13;98502.31;;;1.27;100.00
48041;BME280;33815;48.386;11.738;2023-02-12T07:16:38;98497.19;;;1.27;100.00
48041;BME280;33815;48.386;11.738;2023-02-12T07:19:04;98516.56;;;1.37;100.00
48041;BME280;33815;48.386;11.738;2023-02-12T07:21:29;98514.81;;;1.39;100.00
48041;BME280;33815;48.386;11.738;2023-02-12T07:23:56;98512.16;;;1.42;100.00
48041;BME280;33815;48.386;11.738;2023-02-12T07:26:22;98503.56;;;1.43;100.00
48041;BME280;33815;48.386;11.738;2023-02-12T07:28:48;98508.69;;;1.43;100.00
48041;BME280;33815;48.386;11.738;2023-02-12T07:31:16;98499.09;;;1.48;100.00
48041;BME280;33815;48.386;11.738;2023-02-12T07:33:42;98505.94;;;1.49;100.00
48041;BME280;33815;48.386;11.738;2023-02-12T07:36:13;98504.84;;;1.57;100.00
48041;BME280;33815;48.386;11.738;2023-02-12T07:38:39;98509.94;;;1.58;100.00
48041;BME280;33815;48.386;11.738;2023-02-12T07:41:15;98504.84;;;1.57;100.00
48041;BME280;33815;48.386;11.738;2023-02-12T07:43:42;98515.13;;;1.57;100.00
48041;BME280;33815;48.386;11.738;2023-02-12T07:46:10;98507.25;;;1.63;100.00
48041;BME280;33815;48.386;11.738;2023-02-12T07:48:36;98513.19;;;1.65;100.00
48041;BME280;33815;48.386;11.738;2023-02-12T07:51:06;98502.84;;;1.66;100.00
48041;BME280;33815;48.386;11.738;2023-02-12T07:53:32;98510.09;;;1.82;100.00
48041;BME280;33815;48.386;11.738;2023-02-12T07:56:12;98508.22;;;1.87;100.00
48041;BME280;33815;48.386;11.738;2023-02-12T07:58:40;98495.41;;;1.85;100.00
48041;BME280;33815;48.386;11.738;2023-02-12T08:01:58;98496.91;;;1.93;100.00
48041;BME280;33815;48.386;11.738;2023-02-12T08:04:09;98507.91;;;1.96;100.00
48041;BME280;33815;48.386;11.738;2023-02-12T08:06:37;98511.50;;;2.17;100.00
48041;BME280;33815;48.386;11.738;2023-02-12T08:09:05;98497.28;;;2.07;100.00
48041;BME280;33815;48.386;11.738;2023-02-12T08:11:31;98500.06;;;2.01;100.00
48041;BME280;33815;48.386;11.738;2023-02-12T08:13:57;98510.56;;;2.20;100.00
48041;BME280;33815;48.386;11.738;2023-02-12T08:16:24;98500.19;;;2.23;100.00
48041;BME280;33815;48.386;11.738;2023-02-12T08:18:50;98499.28;;;2.24;100.00
48041;BME280;33815;48.386;11.738;2023-02-12T08:21:21;98506.03;;;2.28;100.00
48041;BME280;33815;48.386;11.738;2023-02-12T08:23:47;98504.31;;;2.29;100.00
48041;BME280;33815;48.386;11.738;2023-02-12T08:26:23;98506.88;;;2.29;100.00
48041;BME280;33815;48.386;11.738;2023-02-12T08:28:57;98498.06;;;2.36;100.00
48041;BME280;33815;48.386;11.738;2023-02-12T08:31:26;98489.44;;;2.37;100.00
48041;BME280;33815;48.386;11.738;2023-02-12T08:33:53;98506.09;;;2.52;100.00
48041;BME280;33815;48.386;11.738;2023-02-12T08:36:27;98508.56;;;2.55;100.00
48041;BME280;33815;48.386;11.738;2023-02-12T08:38:53;98505.16;;;2.54;100.00
48041;BME280;33815;48.386;11.738;2023-02-12T08:41:24;98495.50;;;2.36;100.00
48041;BME280;33815;48.386;11.738;2023-02-12T08:43:55;98497.06;;;2.40;100.00
48041;BME280;33815;48.386;11.738;2023-02-12T08:46:23;98498.16;;;2.58;100.00
48041;BME280;33815;48.386;11.738;2023-02-12T08:48:55;98499.84;;;2.59;100.00
48041;BME280;33815;48.386;11.738;2023-02-12T08:51:22;98499.34;;;2.73;100.00
48041;BME280;33815;48.386;11.738;2023-02-12T08:53:51;98497.25;;;2.84;100.00
48041;BME280;33815;48.386;11.738;2023-02-12T08:56:17;98492.16;;;2.83;100.00
48041;BME280;33815;48.386;11.738;2023-02-12T08:58:44;98500.31;;;2.94;100.00
48041;BME280;33815;48.386;11.738;2023-02-12T09:01:12;98499.50;;;2.94;100.00
48041;BME280;33815;48.386;11.738;2023-02-12T09:03:38;98492.91;;;2.86;100.00
48041;BME280;33815;48.386;11.738;2023-02-12T09:06:05;98508.56;;;3.04;100.00
48041;BME280;33815;48.386;11.738;2023-02-12T09:08:31;98507.19;;;3.19;100.00
48041;BME280;33815;48.386;11.738;2023-02-12T09:10:56;98500.91;;;3.26;100.00
48041;BME280;33815;48.386;11.738;2023-02-12T09:13:21;98505.41;;;3.43;100.00
48041;BME280;33815;48.386;11.738;2023-02-12T09:15:47;98490.53;;;3.28;100.00
48041;BME280;33815;48.386;11.738;2023-02-12T09:18:13;98502.00;;;3.42;100.00
48041;BME280;33815;48.386;11.738;2023-02-12T09:20:41;98512.28;;;3.66;100.00
48041;BME280;33815;48.386;11.738;2023-02-12T09:23:11;98507.69;;;3.73;100.00
48041;BME280;33815;48.386;11.738;2023-02-12T09:25:41;98502.06;;;3.85;100.00
48041;BME280;33815;48.386;11.738;2023-02-12T09:28:07;98487.94;;;3.73;100.00
48041;BME280;33815;48.386;11.738;2023-02-12T09:30:32;98500.03;;;3.93;100.00
48041;BME280;33815;48.386;11.738;2023-02-12T09:32:58;98492.69;;;4.05;100.00
48041;BME280;33815;48.386;11.738;2023-02-12T09:35:23;98510.06;;;4.22;100.00
48041;BME280;33815;48.386;11.738;2023-02-12T09:37:49;98497.34;;;4.17;100.00
48041;BME280;33815;48.386;11.738;2023-02-12T09:40:21;98511.81;;;4.21;100.00
48041;BME280;33815;48.386;11.738;2023-02-12T09:42:56;98514.34;;;4.23;100.00
48041;BME280;33815;48.386;11.738;2023-02-12T09:45:26;98517.25;;;4.36;100.00
48041;BME280;33815;48.386;11.738;2023-02-12T09:48:17;98509.91;;;4.26;100.00
48041;BME280;33815;48.386;11.738;2023-02-12T09:50:53;98515.34;;;4.61;100.00
48041;BME280;33815;48.386;11.738;2023-02-12T09:53:24;98518.88;;;4.59;100.00
48041;BME280;33815;48.386;11.738;2023-02-12T09:55:50;98493.81;;;4.61;100.00
48041;BME280;33815;48.386;11.738;2023-02-12T09:58:21;98494.47;;;4.85;100.00
48041;BME280;33815;48.386;11.738;2023-02-12T10:00:49;98502.50;;;4.79;100.00
48041;BME280;33815;48.386;11.738;2023-02-12T10:03:16;98511.44;;;4.92;100.00
48041;BME280;33815;48.386;11.738;2023-02-12T10:05:53;98515.41;;;5.19;100.00
48041;BME280;33815;48.386;11.738;2023-02-12T10:08:31;98522.06;;;5.43;100.00
48041;BME280;33815;48.386;11.738;2023-02-12T10:19:32;98531.25;;;5.87;100.00
48041;BME280;33815;48.386;11.738;2023-02-12T10:22:09;98529.16;;;6.14;100.00
48041;BME280;33815;48.386;11.738;2023-02-12T10:27:20;98534.16;;;6.35;100.00
48041;BME280;33815;48.386;11.738;2023-02-12T10:29:48;98524.19;;;6.45;100.00
48041;BME280;33815;48.386;11.738;2023-02-12T10:32:30;98509.25;;;6.32;100.00
48041;BME280;33815;48.386;11.738;2023-02-12T10:34:58;98520.06;;;6.41;100.00
48041;BME280;33815;48.386;11.738;2023-02-12T10:37:36;98523.22;;;6.30;100.00
48041;BME280;33815;48.386;11.738;2023-02-12T10:40:27;98513.63;;;6.14;100.00
48041;BME280;33815;48.386;11.738;2023-02-12T10:42:55;98522.91;;;6.36;100.00
48041;BME280;33815;48.386;11.738;2023-02-12T10:45:25;98518.56;;;6.37;100.00
48041;BME280;33815;48.386;11.738;2023-02-12T10:48:03;98518.09;;;6.63;100.00
48041;BME280;33815;48.386;11.738;2023-02-12T10:50:47;98527.34;;;6.34;100.00
48041;BME280;33815;48.386;11.738;2023-02-12T10:53:19;98521.31;;;6.51;100.00
48041;BME280;33815;48.386;11.738;2023-02-12T10:55:45;98510.38;;;6.62;100.00
48041;BME280;33815;48.386;11.738;2023-02-12T10:58:19;98518.31;;;6.59;100.00
48041;BME280;33815;48.386;11.738;2023-02-12T11:00:45;98520.63;;;6.65;100.00
48041;BME280;33815;48.386;11.738;2023-02-12T11:05:39;98515.44;;;6.47;100.00
48041;BME280;33815;48.386;11.738;2023-02-12T11:08:05;98512.47;;;6.38;100.00
48041;BME280;33815;48.386;11.738;2023-02-12T11:10:36;98515.28;;;6.33;100.00
48041;BME280;33815;48.386;11.738;2023-02-12T11:13:03;98502.88;;;6.40;100.00
48041;BME280;33815;48.386;11.738;2023-02-12T11:15:37;98508.28;;;6.35;100.00
48041;BME280;33815;48.386;11.738;2023-02-12T11:18:20;98499.53;;;6.20;100.00
48041;BME280;33815;48.386;11.738;2023-02-12T11:20:52;98504.53;;;6.06;100.00
48041;BME280;33815;48.386;11.738;2023-02-12T11:23:25;98512.91;;;6.11;100.00
48041;BME280;33815;48.386;11.738;2023-02-12T11:28:21;98503.47;;;6.27;100.00
48041;BME280;33815;48.386;11.738;2023-02-12T11:30:53;98507.41;;;6.17;100.00
48041;BME280;33815;48.386;11.738;2023-02-12T11:38:34;98505.06;;;6.12;100.00
48041;BME280;33815;48.386;11.738;2023-02-12T11:41:20;98487.03;;;6.11;100.00
48041;BME280;33815;48.386;11.738;2023-02-12T11:43:47;98503.41;;;6.29;100.00
48041;BME280;33815;48.386;11.738;2023-02-12T11:46:18;98510.41;;;6.27;100.00
48041;BME280;33815;48.386;11.738;2023-02-12T11:48:46;98492.72;;;6.35;100.00
48041;BME280;33815;48.386;11.738;2023-02-12T11:51:19;98483.53;;;6.47;100.00
48041;BME280;33815;48.386;11.738;2023-02-12T11:53:49;98495.69;;;6.45;100.00
48041;BME280;33815;48.386;11.738;2023-02-12T11:56:16;98498.56;;;6.74;100.00
48041;BME280;33815;48.386;11.738;2023-02-12T11:58:42;98492.75;;;6.86;100.00
48041;BME280;33815;48.386;11.738;2023-02-12T12:01:35;98491.09;;;6.85;100.00
48041;BME280;33815;48.386;11.738;2023-02-12T12:04:07;98491.03;;;7.02;100.00
48041;BME280;33815;48.386;11.738;2023-02-12T12:06:37;98487.34;;;7.07;100.00
48041;BME280;33815;48.386;11.738;2023-02-12T12:09:23;98478.84;;;7.05;100.00
48041;BME280;33815;48.386;11.738;2023-02-12T12:12:50;98478.06;;;6.69;100.00
48041;BME280;33815;48.386;11.738;2023-02-12T12:14:59;98472.09;;;6.84;100.00
48041;BME280;33815;48.386;11.738;2023-02-12T12:17:49;98469.97;;;7.09;100.00
48041;BME280;33815;48.386;11.738;2023-02-12T12:20:39;98473.41;;;7.09;100.00
48041;BME280;33815;48.386;11.738;2023-02-12T12:23:19;98478.19;;;7.33;100.00
48041;BME280;33815;48.386;11.738;2023-02-12T12:25:55;98471.50;;;7.29;100.00
48041;BME280;33815;48.386;11.738;2023-02-12T12:34:02;98475.31;;;7.06;100.00
48041;BME280;33815;48.386;11.738;2023-02-12T12:36:57;98476.50;;;6.66;100.00
48041;BME280;33815;48.386;11.738;2023-02-12T12:42:31;98478.22;;;6.66;100.00
48041;BME280;33815;48.386;11.738;2023-02-12T12:54:02;98463.13;;;7.71;100.00
48041;BME280;33815;48.386;11.738;2023-02-12T12:56:57;98458.69;;;7.42;100.00
48041;BME280;33815;48.386;11.738;2023-02-12T12:59:45;98449.25;;;7.41;100.00
48041;BME280;33815;48.386;11.738;2023-02-12T13:05:44;98454.47;;;7.87;100.00
48041;BME280;33815;48.386;11.738;2023-02-12T13:10:49;98449.75;;;7.31;100.00
48041;BME280;33815;48.386;11.738;2023-02-12T13:23:58;98442.53;;;7.20;100.00
48041;BME280;33815;48.386;11.738;2023-02-12T13:26:34;98453.47;;;7.74;100.00
48041;BME280;33815;48.386;11.738;2023-02-12T13:29:48;98460.97;;;7.94;100.00
48041;BME280;33815;48.386;11.738;2023-02-12T13:32:06;98455.16;;;8.05;100.00
48041;BME280;33815;48.386;11.738;2023-02-12T13:34:36;98458.16;;;7.83;100.00
48041;BME280;33815;48.386;11.738;2023-02-12T13:37:03;98452.19;;;7.81;99.15
48041;BME280;33815;48.386;11.738;2023-02-12T13:39:35;98450.28;;;7.68;99.38
48041;BME280;33815;48.386;11.738;2023-02-12T13:45:03;98444.41;;;7.81;96.57
48041;BME280;33815;48.386;11.738;2023-02-12T13:50:39;98449.38;;;7.69;96.77
48041;BME280;33815;48.386;11.738;2023-02-12T13:53:17;98453.19;;;7.78;98.25
48041;BME280;33815;48.386;11.738;2023-02-12T14:03:33;98452.06;;;8.73;93.21
48041;BME280;33815;48.386;11.738;2023-02-12T14:06:20;98439.53;;;8.80;92.85
48041;BME280;33815;48.386;11.738;2023-02-12T14:08:50;98436.66;;;8.70;91.13
48041;BME280;33815;48.386;11.738;2023-02-12T14:11:20;98437.75;;;8.66;90.71
48041;BME280;33815;48.386;11.738;2023-02-12T14:13:54;98429.47;;;8.15;91.73
48041;BME280;33815;48.386;11.738;2023-02-12T14:27:51;98443.28;;;7.38;96.19
48041;BME280;33815;48.386;11.738;2023-02-12T14:37:57;98428.72;;;6.55;98.20
48041;BME280;33815;48.386;11.738;2023-02-12T14:42:57;98439.44;;;6.13;100.00
48041;BME280;33815;48.386;11.738;2023-02-12T14:45:41;98430.91;;;6.11;99.71
48041;BME280;33815;48.386;11.738;2023-02-12T14:51:20;98430.19;;;5.90;100.00
48041;BME280;33815;48.386;11.738;2023-02-12T14:53:48;98440.03;;;6.01;100.00
48041;BME280;33815;48.386;11.738;2023-02-12T14:56:21;98434.41;;;6.10;100.00
48041;BME280;33815;48.386;11.738;2023-02-12T14:58:49;98412.38;;;5.84;100.00
48041;BME280;33815;48.386;11.738;2023-02-12T15:01:17;98435.22;;;5.93;100.00
48041;BME280;33815;48.386;11.738;2023-02-12T15:03:51;98418.03;;;6.10;100.00
48041;BME280;33815;48.386;11.738;2023-02-12T15:06:21;98433.47;;;5.94;100.00
48041;BME280;33815;48.386;11.738;2023-02-12T15:08:53;98430.50;;;5.84;100.00